WetterOnline ( http://www.wetteronline.de )

Wetter aktuell Hamburg

Aktuelles Wetter: Boizenburg (46m)

6-stündlich | Neueste Meldungen
Ortszeit Temperatur Wetter
So, 25.02. 1:00 -5.8° C wolkenlos
Sa, 24.02. 19:00 -2.2° C fast wolkenlos
Sa, 24.02. 13:00 0.4° C bewölkt
Sa, 24.02. 7:00 -1.8° C bedeckt
Sa, 24.02. 1:00 -4.5° C fast wolkenlos
Fr, 23.02. 19:00 -2.6° C wolkenlos
Fr, 23.02. 13:00 -1.1° C leicht bewölkt
Fr, 23.02. 7:00 -4.0° C wolkenlos
Ortszeit Temperatur Wetter
So, 25.02. 2:00 -5.9° C wolkenlos
So, 25.02. 1:50 -5.9° C wolkenlos
So, 25.02. 1:40 -5.8° C fast wolkenlos
So, 25.02. 1:30 -5.6° C fast wolkenlos
So, 25.02. 1:20 -5.6° C fast wolkenlos
So, 25.02. 1:10 -5.7° C wolkenlos
So, 25.02. 1:00 -5.8° C wolkenlos
So, 25.02. 0:30 -5.6° C wolkenlos
So, 25.02. 0:00 -5.1° C leicht bewölkt
Sa, 24.02. 23:30 -5.3° C wolkenlos
Sa, 24.02. 23:00 -4.7° C leicht bewölkt
Ortszeit Relative Feuchte Sichtweite
So, 25.02. 1:00 75% 50 km
Sa, 24.02. 19:00 63% 65 km
Sa, 24.02. 13:00 50% 30 km
Sa, 24.02. 7:00 79% 18 km
Sa, 24.02. 1:00 77% 18 km
Fr, 23.02. 19:00 61% 21 km
Fr, 23.02. 13:00 66% 10 km
Fr, 23.02. 7:00 83% 18 km
Ortszeit Relative Feuchte Sichtweite
So, 25.02. 2:00 76% 40 km
So, 25.02. 1:50 76% -
So, 25.02. 1:40 76% -
So, 25.02. 1:30 77% 45 km
So, 25.02. 1:20 77% -
So, 25.02. 1:10 77% -
So, 25.02. 1:00 75% 50 km
So, 25.02. 0:30 74% 50 km
So, 25.02. 0:00 73% 55 km
Sa, 24.02. 23:30 73% 50 km
Sa, 24.02. 23:00 70% 60 km
Ortszeit Niederschlagsmenge Niederschlagsart
So, 25.02. 1:00 0.0 l/m2 in 6 Std. -
Sa, 24.02. 19:00 0.0 l/m2 in 12 Std. -
Sa, 24.02. 13:00 0.0 l/m2 in 6 Std. -
Sa, 24.02. 7:00 0.0 l/m2 in 12 Std. -
Sa, 24.02. 1:00 0.0 l/m2 in 6 Std. -
Fr, 23.02. 19:00 0.0 l/m2 in 12 Std. -
Fr, 23.02. 13:00 0.0 l/m2 in 6 Std. -
Fr, 23.02. 7:00 0.0 l/m2 in 12 Std. -
Ortszeit Niederschlagsmenge Niederschlagsart
So, 25.02. 2:00 0.0 l/m2 in 1 Std. -
So, 25.02. 1:50 keine Meldung -
So, 25.02. 1:40 keine Meldung -
So, 25.02. 1:30 0.0 l/m2 in 1 Std. -
So, 25.02. 1:20 keine Meldung -
So, 25.02. 1:10 keine Meldung -
So, 25.02. 1:00 0.0 l/m2 in 1 Std. -
So, 25.02. 0:30 0.0 l/m2 in 1 Std. -
So, 25.02. 0:00 0.0 l/m2 in 1 Std. -
Sa, 24.02. 23:30 0.0 l/m2 in 1 Std. -
Sa, 24.02. 23:00 0.0 l/m2 in 1 Std. -
Ortszeit Stärke Spitze Richtung
km/h Bft. km/h Grad Sektor
So, 25.02. 1:00 7 2 29 60° NO
Sa, 24.02. 19:00 22 4 43 60° NO
Sa, 24.02. 13:00 26 4 44 80° O
Sa, 24.02. 7:00 9 2 15 20° N
Sa, 24.02. 1:00 9 2 22 80° O
Fr, 23.02. 19:00 14 3 29 70° O
Fr, 23.02. 13:00 17 3 35 70° O
Fr, 23.02. 7:00 11 2 29 60° NO
Ortszeit Stärke Spitze Richtung
km/h Bft. km/h Grad Sektor
So, 25.02. 2:00 9 2 11 50° NO
So, 25.02. 1:50 9 2 - 50° NO
So, 25.02. 1:40 7 2 - 50° NO
So, 25.02. 1:30 6 1 11 70° O
So, 25.02. 1:20 6 1 - 70° O
So, 25.02. 1:10 7 2 - 60° NO
So, 25.02. 1:00 7 2 14 60° NO
So, 25.02. 0:30 9 2 13 80° O
So, 25.02. 0:00 11 2 18 80° O
Sa, 24.02. 23:30 11 2 17 70° O
Sa, 24.02. 23:00 13 3 20 60° NO
Ortszeit Untergrenze Bedeckung Gattung
total tief tief mittel hoch
So, 25.02. 1:00 - 0/8 0/8 - - -
Sa, 24.02. 19:00 5100 m 1/8 1/8 - - -
Sa, 24.02. 13:00 1350 m 7/8 7/8 - - -
Sa, 24.02. 7:00 540 m 8/8 8/8 - - -
Sa, 24.02. 1:00 4800 m 1/8 1/8 - - -
Fr, 23.02. 19:00 5100 m 0/8 0/8 - - -
Fr, 23.02. 13:00 720 m 2/8 1/8 - - -
Fr, 23.02. 7:00 - 0/8 0/8 - - -
Ortszeit Bedeckungsgrad in Achtel und Wolkenuntergrenze
So, 25.02. 2:00 keine Wolken
So, 25.02. 1:50 keine Wolken
So, 25.02. 1:40 1(5100m)
So, 25.02. 1:30 1(5100m)
So, 25.02. 1:20 1(5100m)
So, 25.02. 1:10 keine Wolken
So, 25.02. 1:00 keine Wolken
So, 25.02. 0:30 keine Wolken
So, 25.02. 0:00 2(5100m)
Sa, 24.02. 23:30 3(5100m)
Sa, 24.02. 23:00 2(5700m)
Ortszeit Luftdruck NN (hPa) Tendenz (hPa in 3 Std.)
So, 25.02. 1:00 1035 + 0,6
Sa, 24.02. 19:00 1033 + 1,0
Sa, 24.02. 13:00 1032 + 0,3
Sa, 24.02. 7:00 1031 + 0,8
Sa, 24.02. 1:00 1030 + 0,7
Fr, 23.02. 19:00 1028 + 0,2
Fr, 23.02. 13:00 1028 0,0
Fr, 23.02. 7:00 1027 + 0,8
Ortszeit Luftdruck NN (hPa) Tendenz (hPa in 3 Std.)
So, 25.02. 2:00 1035 + 0,3
So, 25.02. 1:50 1035 keine Meldung
So, 25.02. 1:40 1035 keine Meldung
So, 25.02. 1:30 1035 + 0,4
So, 25.02. 1:20 1035 keine Meldung
So, 25.02. 1:10 1035 keine Meldung
So, 25.02. 1:00 1035 + 0,6
So, 25.02. 0:30 1035 + 0,6
So, 25.02. 0:00 1035 + 0,6
Sa, 24.02. 23:30 1034 + 0,6
Sa, 24.02. 23:00 1034 + 0,9
Ortszeit Schneehöhe (cm)
So, 25.02. 1:00 -
Sa, 24.02. 19:00 0
Sa, 24.02. 13:00 0
Sa, 24.02. 7:00 0
Sa, 24.02. 1:00 0
Fr, 23.02. 19:00 0
Fr, 23.02. 13:00 0
Fr, 23.02. 7:00 0
Ortszeit Schneehöhe (cm)
So, 25.02. 2:00 0
So, 25.02. 1:50 0
So, 25.02. 1:40 -
So, 25.02. 1:30 -
So, 25.02. 1:20 -
So, 25.02. 1:10 -
So, 25.02. 1:00 -
So, 25.02. 0:30 -
So, 25.02. 0:00 -
Sa, 24.02. 23:30 0
Sa, 24.02. 23:00 -
Link zu dieser Seite / Seite empfehlen

Das Wetter in ...